Time;durP1;ratioP1;P1;durP2;ratioP2;P2;SDS_P1;SDS_P2;PMS_P1;PMS_P2;Temp;Humidity;BMP_temperature;BMP_pressure;BME280_temperature;BME280_humidity;BME280_pressure;Samples;Min_cycle;Max_cycle;Signal;HPM_P1;HPM_P2
2021/01/12 00:00:25;;;;;;;65.75;23.02;;;;;;;0.30;85.35;101864.91;1566354;90;21188;-89
2021/01/12 00:02:56;;;;;;;69.50;24.80;;;;;;;0.36;85.59;101862.12;1566166;90;21288;-89
2021/01/12 00:05:22;;;;;;;125.38;38.10;;;;;;;0.50;85.22;101860.64;1565937;91;21239;-89
2021/01/12 00:07:49;;;;;;;93.17;31.05;;;;;;;0.50;85.07;101869.45;1566090;90;21225;-89
2021/01/12 00:10:22;;;;;;;71.60;24.72;;;;;;;0.58;84.86;101870.77;1566011;90;21153;-88
2021/01/12 00:12:48;;;;;;;60.80;22.22;;;;;;;0.57;84.67;101870.95;1566177;90;21629;-89
2021/01/12 00:15:15;;;;;;;64.12;22.25;;;;;;;0.56;84.62;101870.60;1566141;90;21216;-89
2021/01/12 00:17:41;;;;;;;66.75;22.67;;;;;;;0.57;84.65;101869.12;1565859;90;21252;-88
2021/01/12 00:20:09;;;;;;;68.12;22.73;;;;;;;0.57;84.59;101865.66;1566118;90;21109;-89
2021/01/12 00:22:35;;;;;;;68.30;23.62;;;;;;;0.58;84.62;101865.97;1566067;91;21251;-88
2021/01/12 00:25:02;;;;;;;67.58;25.48;;;;;;;0.56;84.50;101863.97;1566149;90;21487;-89
2021/01/12 00:27:28;;;;;;;65.57;22.93;;;;;;;0.59;84.65;101861.84;1637088;87;21169;-89
2021/01/12 00:29:54;;;;;;;55.55;21.48;;;;;;;0.58;84.48;101864.65;1647596;87;21173;-88
2021/01/12 00:32:26;;;;;;;62.55;22.27;;;;;;;0.57;84.61;101865.66;1647506;87;21063;-89
2021/01/12 00:34:56;;;;;;;64.27;21.48;;;;;;;0.58;84.62;101865.47;1616942;87;21150;-89
2021/01/12 00:37:24;;;;;;;55.40;20.08;;;;;;;0.55;84.61;101867.13;1647634;87;21265;-89
2021/01/12 00:39:51;;;;;;;70.42;23.62;;;;;;;0.41;84.33;101869.07;1647583;87;21235;-88
2021/01/12 00:42:18;;;;;;;70.75;25.15;;;;;;;0.27;85.07;101861.27;1647651;87;21182;-88
2021/01/12 00:44:44;;;;;;;63.75;22.70;;;;;;;0.19;85.18;101860.72;1647625;87;21217;-89
2021/01/12 00:47:11;;;;;;;70.17;24.47;;;;;;;0.09;85.82;101859.18;1647653;87;21030;-88
2021/01/12 00:49:37;;;;;;;65.50;23.75;;;;;;;0.01;85.84;101858.67;1641297;86;21153;-88
2021/01/12 00:52:12;;;;;;;65.40;23.73;;;;;;;0.06;85.63;101850.22;1640575;86;21603;-89
2021/01/12 00:54:38;;;;;;;71.57;23.52;;;;;;;0.12;85.61;101854.41;1640534;86;21173;-88
2021/01/12 00:57:05;;;;;;;56.35;20.25;;;;;;;0.13;85.73;101856.56;1640605;86;21614;-89
2021/01/12 00:59:31;;;;;;;59.85;21.17;;;;;;;0.15;85.40;101854.59;1640451;86;21070;-89
2021/01/12 01:02:02;;;;;;;74.05;23.38;;;;;;;0.17;85.23;101845.97;1640486;86;21713;-88
2021/01/12 01:04:28;;;;;;;63.63;22.98;;;;;;;0.19;85.34;101838.69;1640617;86;21370;-89
2021/01/12 01:06:55;;;;;;;66.22;23.77;;;;;;;0.20;85.46;101841.67;1640459;86;21197;-89
2021/01/12 01:09:21;;;;;;;62.83;23.00;;;;;;;0.20;85.59;101837.19;1640621;86;21567;-89
2021/01/12 01:11:49;;;;;;;66.45;22.62;;;;;;;0.25;85.88;101837.23;1639067;86;21213;-89
2021/01/12 01:14:17;;;;;;;70.67;23.90;;;;;;;0.30;85.95;101834.42;1640606;86;21212;-89
2021/01/12 01:16:44;;;;;;;72.42;23.90;;;;;;;0.37;85.92;101830.63;1640536;86;21170;-89
2021/01/12 01:19:10;;;;;;;66.85;25.08;;;;;;;0.34;85.58;101836.25;1640540;86;21142;-88
2021/01/12 01:21:37;;;;;;;70.78;24.55;;;;;;;0.31;85.59;101834.75;1640644;86;21161;-88
2021/01/12 01:24:04;;;;;;;69.45;25.55;;;;;;;0.34;85.63;101829.13;1639257;86;21213;-88
2021/01/12 01:26:30;;;;;;;67.50;23.05;;;;;;;0.36;85.49;101831.13;1640405;86;21180;-89
2021/01/12 01:28:57;;;;;;;65.90;23.67;;;;;;;0.41;85.68;101823.99;1640594;86;22075;-89
2021/01/12 01:31:23;;;;;;;77.03;24.30;;;;;;;0.38;85.23;101829.16;1640339;86;22279;-89
2021/01/12 01:33:49;;;;;;;68.72;25.52;;;;;;;0.19;85.63;101826.77;1640639;86;21155;-89
2021/01/12 01:36:15;;;;;;;67.53;23.67;;;;;;;0.16;85.51;101826.59;1640826;86;21646;-89
2021/01/12 01:38:41;;;;;;;65.35;23.45;;;;;;;0.11;85.73;101824.08;1640696;86;21133;-89
2021/01/12 01:41:09;;;;;;;70.10;24.72;;;;;;;0.14;85.79;101824.58;1640584;86;21262;-89
2021/01/12 01:43:38;;;;;;;63.60;22.70;;;;;;;0.20;85.90;101830.56;1607489;86;21194;-89
2021/01/12 01:46:06;;;;;;;69.20;23.42;;;;;;;0.10;86.19;101839.16;1640620;86;21659;-89
2021/01/12 01:48:33;;;;;;;72.70;25.17;;;;;;;0.05;86.28;101838.80;1639119;86;21161;-89
2021/01/12 01:51:02;;;;;;;74.25;24.90;;;;;;;0.03;86.39;101843.45;1636199;87;21153;-89
2021/01/12 01:53:32;;;;;;;72.87;26.37;;;;;;;0.05;86.43;101845.92;1636039;87;21269;-89
2021/01/12 01:56:04;;;;;;;73.33;24.00;;;;;;;0.06;86.48;101843.59;1631781;87;21630;-89
2021/01/12 01:58:30;;;;;;;55.57;18.63;;;;;;;0.11;86.43;101837.33;1636279;87;21511;-89
2021/01/12 02:00:56;;;;;;;73.20;25.52;;;;;;;0.10;86.12;101837.83;1636211;86;20970;-89
2021/01/12 02:03:27;;;;;;;63.68;24.25;;;;;;;0.11;86.06;101836.83;1636236;87;21192;-89
2021/01/12 02:05:59;;;;;;;72.08;25.05;;;;;;;0.11;86.00;101829.38;1631810;87;21381;-89
2021/01/12 02:08:48;;;;;;;60.35;24.15;;;;;;;0.16;86.11;101835.87;1632718;87;21235;-89
2021/01/12 02:11:15;;;;;;;68.05;24.18;;;;;;;0.21;85.95;101840.70;1633485;87;21181;-88
2021/01/12 02:13:44;;;;;;;79.05;25.82;;;;;;;0.25;86.00;101839.38;1635978;87;21137;-89
2021/01/12 02:16:11;;;;;;;75.00;24.57;;;;;;;0.25;85.81;101839.87;1636139;87;21509;-88
2021/01/12 02:18:38;;;;;;;79.15;27.20;;;;;;;0.25;85.91;101842.02;1636084;87;21184;-89
2021/01/12 02:21:06;;;;;;;71.60;24.35;;;;;;;0.34;85.89;101840.23;1632006;87;21240;-89
2021/01/12 02:23:56;;;;;;;75.17;26.33;;;;;;;0.29;85.41;101839.38;1636233;87;21196;-89
2021/01/12 02:26:24;;;;;;;76.50;26.90;;;;;;;0.30;85.39;101837.58;1636117;87;21100;-89
2021/01/12 02:28:52;;;;;;;89.00;31.12;;;;;;;0.30;85.24;101842.38;1635661;87;37573;-88
2021/01/12 02:31:18;;;;;;;90.77;29.32;;;;;;;0.22;85.35;101838.38;1610105;87;21213;-88
2021/01/12 02:33:49;;;;;;;77.47;26.82;;;;;;;0.24;85.57;101839.05;1604427;87;21105;-89
2021/01/12 02:36:22;;;;;;;67.82;24.90;;;;;;;0.26;85.44;101838.38;1636144;87;21245;-89
2021/01/12 02:38:48;;;;;;;70.10;25.35;;;;;;;0.23;85.61;101837.37;1633407;87;21164;-88
2021/01/12 02:41:17;;;;;;;61.53;22.62;;;;;;;0.18;85.91;101839.70;1636035;87;21184;-89
2021/01/12 02:43:45;;;;;;;66.70;24.02;;;;;;;0.23;85.94;101847.47;1635976;87;21650;-89
2021/01/12 02:46:12;;;;;;;75.62;24.37;;;;;;;0.23;85.61;101852.77;1635971;87;21630;-89
2021/01/12 02:48:38;;;;;;;68.20;24.90;;;;;;;0.25;85.82;101849.98;1636080;85;21776;-89
2021/01/12 02:51:06;;;;;;;73.25;26.15;;;;;;;0.33;85.93;101853.16;1636035;87;21200;-88
2021/01/12 02:53:32;;;;;;;78.65;26.48;;;;;;;0.37;85.68;101855.81;1636166;87;21082;-88
2021/01/12 02:55:58;;;;;;;69.50;25.70;;;;;;;0.38;85.58;101853.02;1636078;87;21950;-89
2021/01/12 02:58:24;;;;;;;75.47;25.92;;;;;;;0.44;85.60;101845.73;1636085;87;20951;-89
2021/01/12 03:00:49;;;;;;;73.00;25.12;;;;;;;0.39;85.42;101840.58;1636139;87;21081;-89
2021/01/12 03:03:15;;;;;;;70.08;23.05;;;;;;;0.36;85.47;101839.58;1636053;87;21058;-89
2021/01/12 03:05:41;;;;;;;65.65;24.02;;;;;;;0.27;85.66;101832.10;1636068;87;21009;-89
2021/01/12 03:08:07;;;;;;;74.07;25.68;;;;;;;0.20;85.78;101828.42;1636146;87;22005;-89
2021/01/12 03:10:34;;;;;;;73.15;24.82;;;;;;;0.18;85.86;101825.12;1636095;87;21163;-89
2021/01/12 03:13:00;;;;;;;70.37;24.47;;;;;;;0.14;86.09;101822.44;1635981;87;21169;-89
2021/01/12 03:15:26;;;;;;;62.15;22.93;;;;;;;0.16;86.13;101817.81;1610045;87;20955;-89
2021/01/12 03:17:52;;;;;;;68.02;25.17;;;;;;;0.19;86.21;101818.81;1635929;87;21075;-88
2021/01/12 03:20:18;;;;;;;78.02;26.02;;;;;;;0.14;85.97;101819.78;1635985;87;21234;-88
2021/01/12 03:22:44;;;;;;;68.45;23.75;;;;;;;0.18;86.18;101819.81;1635787;87;21022;-89
2021/01/12 03:25:10;;;;;;;68.87;25.52;;;;;;;0.27;86.22;101820.67;1604352;87;21049;-89
2021/01/12 03:27:36;;;;;;;69.82;25.20;;;;;;;0.31;86.03;101820.17;1636091;87;21177;-89
2021/01/12 03:30:05;;;;;;;74.12;26.07;;;;;;;0.36;85.88;101819.20;1636102;87;20994;-89
2021/01/12 03:32:31;;;;;;;70.17;25.85;;;;;;;0.39;85.89;101812.74;1608933;88;21199;-89
2021/01/12 03:34:57;;;;;;;86.78;28.95;;;;;;;0.43;85.96;101813.56;1609174;89;21099;-89
2021/01/12 03:37:23;;;;;;;85.20;29.37;;;;;;;0.51;85.87;101817.24;1609019;88;21012;-89
2021/01/12 03:39:49;;;;;;;84.47;29.12;;;;;;;0.48;85.25;101806.96;1608948;89;21194;-89
2021/01/12 03:42:15;;;;;;;86.47;28.60;;;;;;;0.41;85.20;101802.78;1609000;89;21222;-89
2021/01/12 03:44:42;;;;;;;95.40;29.82;;;;;;;0.31;85.19;101791.01;1609006;89;21949;-89
2021/01/12 03:47:09;;;;;;;88.72;28.52;;;;;;;0.26;85.19;101788.00;1608872;88;21692;-88
2021/01/12 03:49:35;;;;;;;82.62;26.90;;;;;;;0.21;85.42;101782.38;1604634;89;21628;-89
2021/01/12 03:52:01;;;;;;;101.47;31.40;;;;;;;0.15;85.76;101779.88;1600172;89;21223;-88
2021/01/12 03:54:27;;;;;;;76.30;27.10;;;;;;;-0.11;86.47;101772.02;1600228;89;21124;-89
2021/01/12 03:56:53;;;;;;;74.58;26.00;;;;;;;-0.33;87.64;101767.28;1600324;89;21072;-89
2021/01/12 03:59:19;;;;;;;69.95;24.43;;;;;;;-0.43;88.09;101760.80;1600260;89;21237;-88
2021/01/12 04:01:44;;;;;;;63.13;22.93;;;;;;;-0.59;88.11;101758.91;1600272;89;21081;-89
2021/01/12 04:04:11;;;;;;;63.10;22.75;;;;;;;-0.63;88.37;101753.57;1600412;89;21651;-89
2021/01/12 04:06:37;;;;;;;65.78;23.02;;;;;;;-0.61;88.04;101755.58;1600261;89;21691;-88
2021/01/12 04:09:04;;;;;;;55.23;21.27;;;;;;;-0.61;87.84;101754.26;1600237;89;21207;-88
2021/01/12 04:11:34;;;;;;;53.63;21.17;;;;;;;-0.54;87.32;101750.48;1600224;89;21167;-89
2021/01/12 04:13:59;;;;;;;58.13;20.40;;;;;;;-0.58;87.16;101755.77;1600269;89;21269;-89
2021/01/12 04:16:25;;;;;;;61.08;21.02;;;;;;;-0.64;87.24;101749.28;1600536;89;21160;-89
2021/01/12 04:18:51;;;;;;;54.55;20.82;;;;;;;-0.71;87.68;101746.91;1600442;89;21751;-89
2021/01/12 04:21:17;;;;;;;57.27;21.05;;;;;;;-0.74;87.46;101747.22;1600344;89;21197;-88
2021/01/12 04:23:45;;;;;;;57.65;20.45;;;;;;;-0.83;87.58;101748.16;1600093;89;21711;-88
2021/01/12 04:26:11;;;;;;;49.05;18.17;;;;;;;-0.58;87.34;101755.77;1600345;89;21167;-89
2021/01/12 04:28:37;;;;;;;52.13;18.57;;;;;;;-0.47;86.66;101766.08;1607639;86;21602;-89
2021/01/12 04:31:03;;;;;;;44.63;18.35;;;;;;;-0.41;86.12;101769.89;1640464;86;21163;-89
2021/01/12 04:33:29;;;;;;;49.30;17.48;;;;;;;-0.34;85.96;101777.05;1639585;86;21268;-89
2021/01/12 04:35:55;;;;;;;48.78;17.85;;;;;;;-0.27;85.71;101785.19;1640509;86;21154;-89
2021/01/12 04:38:21;;;;;;;53.42;19.92;;;;;;;-0.21;85.77;101791.16;1576849;89;21784;-89
2021/01/12 04:40:47;;;;;;;53.35;19.98;;;;;;;-0.17;86.21;101786.41;1555550;91;21006;-89
2021/01/12 04:43:15;;;;;;;54.05;19.48;;;;;;;-0.17;86.23;101781.11;1577110;91;21750;-89
2021/01/12 04:45:41;;;;;;;52.93;20.75;;;;;;;-0.14;86.10;101785.58;1586575;90;21714;-89
2021/01/12 04:48:08;;;;;;;56.30;21.05;;;;;;;-0.14;86.25;101796.68;1586485;90;21115;-89
2021/01/12 04:50:34;;;;;;;65.10;23.10;;;;;;;-0.15;86.07;101805.09;1569571;90;21207;-88
2021/01/12 04:53:00;;;;;;;61.48;22.30;;;;;;;-0.16;85.68;101806.09;1565399;91;21688;-89
2021/01/12 04:55:26;;;;;;;60.80;22.40;;;;;;;-0.31;84.90;101809.02;1565371;91;21057;-88
2021/01/12 04:57:52;;;;;;;74.03;23.77;;;;;;;-0.21;85.28;101800.94;1565392;91;21936;-88
2021/01/12 05:00:27;;;;;;;67.15;23.45;;;;;;;-0.14;85.39;101808.10;1565431;91;21579;-88
2021/01/12 05:03:03;;;;;;;69.17;22.60;;;;;;;-0.04;85.60;101807.47;1592263;87;21317;-88
2021/01/12 05:05:31;;;;;;;75.65;25.68;;;;;;;-0.08;84.79;101802.16;1623529;87;21220;-89
2021/01/12 05:08:03;;;;;;;63.73;22.80;;;;;;;-0.07;85.20;101799.84;1623398;87;21205;-89
2021/01/12 05:10:37;;;;;;;60.75;21.68;;;;;;;-0.14;84.82;101794.03;1623444;87;21436;-89
2021/01/12 05:13:05;;;;;;;62.15;21.97;;;;;;;-0.10;85.05;101786.91;1623278;87;21679;-89
2021/01/12 05:15:32;;;;;;;60.88;20.95;;;;;;;-0.26;85.38;101780.24;1623577;88;21171;-89
2021/01/12 05:18:00;;;;;;;58.85;21.10;;;;;;;-0.27;85.20;101783.36;1623479;87;21677;-88
2021/01/12 05:20:27;;;;;;;57.78;21.35;;;;;;;-0.28;85.41;101787.51;1602383;88;21236;-89
2021/01/12 05:23:16;;;;;;;66.22;22.80;;;;;;;-0.22;85.67;101786.05;1623522;87;21179;-89
2021/01/12 05:25:45;;;;;;;64.87;23.12;;;;;;;-0.13;85.79;101797.00;1620172;87;21118;-88
2021/01/12 05:28:12;;;;;;;61.45;22.58;;;;;;;-0.05;85.53;101807.64;1623390;87;21218;-88
2021/01/12 05:30:39;;;;;;;63.63;22.45;;;;;;;0.01;85.57;101814.13;1623787;87;21606;-89
2021/01/12 05:33:05;;;;;;;67.50;22.15;;;;;;;-0.01;84.99;101819.06;1623562;88;21218;-89
2021/01/12 05:35:39;;;;;;;66.07;23.60;;;;;;;-0.03;85.15;101832.13;1619991;87;21456;-88
2021/01/12 05:38:08;;;;;;;62.80;21.52;;;;;;;-0.01;85.27;101853.52;1623652;87;21193;-89
2021/01/12 05:40:38;;;;;;;59.23;22.65;;;;;;;0.03;85.26;101863.33;1623529;87;21750;-89
2021/01/12 05:43:12;;;;;;;59.88;22.35;;;;;;;0.08;85.11;101869.45;1637737;87;21194;-89
2021/01/12 05:45:42;;;;;;;65.15;22.17;;;;;;;0.09;84.85;101867.13;1609590;89;21233;-90
2021/01/12 05:48:10;;;;;;;55.60;21.27;;;;;;;0.10;84.88;101856.89;1508519;93;21728;-89
2021/01/12 05:50:37;;;;;;;69.10;22.05;;;;;;;0.16;85.03;101847.80;1518355;93;22636;-89
2021/01/12 05:53:16;;;;;;;56.58;19.98;;;;;;;0.14;84.68;101846.29;1523875;93;21775;-88
2021/01/12 05:55:50;;;;;;;57.75;21.37;;;;;;;0.11;84.63;101844.78;1524244;93;21172;-89
2021/01/12 05:58:31;;;;;;;58.63;21.35;;;;;;;-0.01;84.86;101843.41;1521473;93;21208;-89
2021/01/12 06:01:02;;;;;;;56.55;20.40;;;;;;;0.03;84.71;101839.95;1483225;95;21242;-89
2021/01/12 06:03:33;;;;;;;55.30;19.48;;;;;;;0.06;84.80;101840.95;1501531;94;21593;-89
2021/01/12 06:05:59;;;;;;;62.85;18.92;;;;;;;0.06;84.66;101835.65;1483115;95;21342;-89
2021/01/12 06:08:26;;;;;;;44.83;15.40;;;;;;;0.09;83.78;101835.33;1465061;96;21221;-89
2021/01/12 06:10:53;;;;;;;34.60;12.90;;;;;;;0.11;82.86;101831.53;1465234;96;21348;-90
2021/01/12 06:13:20;;;;;;;34.63;11.73;;;;;;;0.15;82.34;101825.44;1483212;95;21329;-90
2021/01/12 06:15:48;;;;;;;41.15;15.93;;;;;;;0.21;81.50;101826.95;1483262;96;21274;-89
2021/01/12 06:18:16;;;;;;;56.65;19.73;;;;;;;0.23;81.78;101826.77;1483004;95;21281;-89
2021/01/12 06:21:09;;;;;;;43.08;14.18;;;;;;;0.25;82.77;101831.92;1483146;95;21309;-90
2021/01/12 06:23:53;;;;;;;28.57;11.12;;;;;;;0.27;82.34;101828.12;1480756;95;21719;-88
2021/01/12 06:26:19;;;;;;;13.68;4.87;;;;;;;0.31;81.16;101821.49;1466107;96;26084;-89
2021/01/12 06:28:46;;;;;;;18.85;7.87;;;;;;;0.35;79.25;101821.49;1466116;96;21309;-89
2021/01/12 06:31:12;;;;;;;25.08;9.80;;;;;;;0.32;75.84;101829.77;1466096;96;21355;-90
2021/01/12 06:33:39;;;;;;;25.85;8.93;;;;;;;0.33;78.15;101845.20;1466162;97;21257;-89
2021/01/12 06:36:07;;;;;;;28.55;10.28;;;;;;;0.34;77.35;101842.38;1466229;96;21238;-87
2021/01/12 06:38:39;;;;;;;29.05;9.73;;;;;;;0.35;76.99;101847.18;1463406;96;22027;-87
2021/01/12 06:41:08;;;;;;;18.57;7.08;;;;;;;0.37;77.51;101847.36;1487393;95;21730;-87
2021/01/12 06:43:35;;;;;;;10.90;4.60;;;;;;;0.36;76.19;101850.19;1471998;96;21322;-87
2021/01/12 06:46:02;;;;;;;10.82;4.35;;;;;;;0.45;76.21;101851.86;1467508;95;21027;-88
2021/01/12 06:48:35;;;;;;;10.93;3.85;;;;;;;0.35;72.80;101840.55;1491839;94;21599;-86
2021/01/12 06:51:01;;;;;;;10.63;3.65;;;;;;;0.39;73.33;101851.19;1498172;93;21628;-86
2021/01/12 06:53:30;;;;;;;5.87;2.87;;;;;;;0.49;73.05;101853.69;1506279;95;21531;-86
2021/01/12 06:56:06;;;;;;;5.75;2.65;;;;;;;0.14;65.76;101858.22;1506338;95;21257;-86
2021/01/12 06:58:33;;;;;;;5.78;2.62;;;;;;;0.15;68.11;101859.89;1506414;95;21666;-87
2021/01/12 07:01:01;;;;;;;8.68;3.47;;;;;;;0.28;68.46;101860.76;1506427;93;21239;-86
2021/01/12 07:03:32;;;;;;;11.15;4.22;;;;;;;0.19;68.96;101850.63;1531003;90;22053;-87
2021/01/12 07:06:03;;;;;;;10.72;4.33;;;;;;;0.35;71.58;101854.63;1505780;95;21223;-86
2021/01/12 07:08:30;;;;;;;14.90;5.90;;;;;;;0.41;72.56;101844.73;1483117;96;21497;-86
2021/01/12 07:11:03;;;;;;;10.90;4.62;;;;;;;0.48;72.90;101843.58;1483137;96;21346;-87
2021/01/12 07:13:37;;;;;;;15.68;5.45;;;;;;;0.63;72.83;101843.78;1481353;96;21023;-87
2021/01/12 07:16:14;;;;;;;10.18;3.87;;;;;;;0.69;72.52;101840.47;1487311;92;21472;-87
2021/01/12 07:18:43;;;;;;;14.00;5.53;;;;;;;0.74;71.12;101848.77;1525055;93;21193;-87
2021/01/12 07:21:14;;;;;;;13.85;5.20;;;;;;;0.75;71.12;101851.75;1528288;93;21714;-87
2021/01/12 07:23:41;;;;;;;13.58;5.47;;;;;;;0.72;71.21;101857.38;1552980;92;21216;-87
2021/01/12 07:26:09;;;;;;;9.35;3.60;;;;;;;0.59;69.56;101859.66;1528249;93;21250;-86
2021/01/12 07:28:46;;;;;;;8.75;3.50;;;;;;;0.60;69.07;101858.69;1553204;92;22133;-87
2021/01/12 07:31:12;;;;;;;7.17;3.60;;;;;;;0.45;67.58;101852.69;1526807;93;21230;-87
2021/01/12 07:33:41;;;;;;;11.57;3.90;;;;;;;0.49;68.68;101847.88;1553349;92;21080;-87
2021/01/12 07:36:07;;;;;;;11.30;4.60;;;;;;;0.55;71.07;101858.34;1528371;93;21203;-87
2021/01/12 07:38:33;;;;;;;9.15;3.87;;;;;;;0.65;71.53;101862.52;1553324;92;21643;-86
2021/01/12 07:41:03;;;;;;;14.55;5.42;;;;;;;0.69;70.36;101864.34;1528413;93;21287;-87
2021/01/12 07:43:31;;;;;;;55.30;17.30;;;;;;;0.83;72.00;101867.69;1585025;89;21398;-86
2021/01/12 07:45:57;;;;;;;23.83;8.30;;;;;;;0.85;72.37;101866.18;1640586;86;21639;-86
2021/01/12 07:48:23;;;;;;;15.35;6.03;;;;;;;0.90;71.80;101855.41;1640718;86;21027;-86
2021/01/12 07:50:52;;;;;;;19.05;6.17;;;;;;;0.96;71.01;101838.00;1638108;86;21145;-85
2021/01/12 07:53:19;;;;;;;13.93;5.33;;;;;;;0.95;70.39;101830.22;1636350;87;21156;-86
2021/01/12 07:55:47;;;;;;;8.43;3.60;;;;;;;0.86;69.86;101820.92;1636237;87;21156;-85
2021/01/12 07:58:17;;;;;;;10.32;3.67;;;;;;;0.83;69.24;101819.92;1636292;87;21184;-86
2021/01/12 08:00:48;;;;;;;9.23;4.12;;;;;;;0.78;68.96;101822.23;1636272;87;21198;-86
2021/01/12 08:03:15;;;;;;;7.45;3.30;;;;;;;0.75;69.62;101827.05;1636257;87;21209;-85
2021/01/12 08:05:41;;;;;;;14.73;4.03;;;;;;;0.74;68.95;101832.03;1636286;87;21241;-85
2021/01/12 08:08:11;;;;;;;8.20;3.40;;;;;;;0.62;68.91;101828.87;1636332;87;21228;-85
2021/01/12 08:10:42;;;;;;;7.90;2.80;;;;;;;0.71;69.76;101815.09;1636315;87;21170;-86
2021/01/12 08:13:14;;;;;;;7.85;3.20;;;;;;;0.68;68.59;101806.48;1636274;87;21173;-85
2021/01/12 08:18:18;;;;;;;10.15;4.45;;;;;;;0.78;69.65;101771.83;1582078;90;21685;-85
2021/01/12 08:20:45;;;;;;;11.90;4.22;;;;;;;0.47;68.08;101765.50;1582159;90;21187;-86
2021/01/12 08:23:17;;;;;;;11.43;4.40;;;;;;;0.29;67.17;101774.42;1581982;90;21230;-86
2021/01/12 08:25:44;;;;;;;11.15;4.55;;;;;;;0.46;67.46;101763.36;1553573;92;21069;-86
2021/01/12 08:28:10;;;;;;;12.73;4.50;;;;;;;0.41;67.99;101749.28;1556306;92;21621;-86
2021/01/12 08:30:39;;;;;;;10.38;4.42;;;;;;;0.45;67.40;101761.70;1556465;92;21464;-86
2021/01/12 08:33:35;;;;;;;23.30;6.72;;;;;;;0.45;67.34;101757.23;1556242;92;21203;-87
2021/01/12 08:36:16;;;;;;;20.23;6.45;;;;;;;0.60;68.51;101751.27;1556315;92;21611;-89
2021/01/12 08:38:43;;;;;;;13.38;4.83;;;;;;;0.79;68.85;101763.36;1502335;95;21216;-87
2021/01/12 08:41:11;;;;;;;10.50;4.00;;;;;;;0.88;67.54;101759.70;1502177;95;21627;-91
2021/01/12 08:43:40;;;;;;;10.63;3.70;;;;;;;0.83;64.71;101764.70;1502271;95;21268;-88
2021/01/12 08:46:06;;;;;;;9.80;3.67;;;;;;;1.00;65.09;101763.70;1502101;95;21063;-87
2021/01/12 08:48:33;;;;;;;10.28;3.65;;;;;;;0.98;64.82;101763.53;1502324;95;21215;-88
2021/01/12 08:50:59;;;;;;;9.90;3.62;;;;;;;0.78;63.70;101762.55;1507127;93;21194;-87
2021/01/12 08:53:30;;;;;;;13.30;4.47;;;;;;;1.06;64.24;101751.08;1511553;93;21194;-87
2021/01/12 08:56:09;;;;;;;8.03;3.22;;;;;;;1.20;61.46;101746.06;1511389;93;21908;-87
2021/01/12 08:58:36;;;;;;;9.13;3.65;;;;;;;1.39;63.83;101743.55;1511475;93;21301;-87
2021/01/12 09:01:05;;;;;;;18.12;6.37;;;;;;;1.46;62.25;101730.72;1511463;94;21209;-87
2021/01/12 09:03:31;;;;;;;15.10;4.97;;;;;;;1.30;62.08;101740.08;1513527;93;21274;-87
2021/01/12 09:05:58;;;;;;;11.70;4.22;;;;;;;0.74;59.39;101733.88;1513379;93;21545;-86
2021/01/12 09:08:26;;;;;;;13.28;5.92;;;;;;;0.60;60.42;101730.88;1513382;93;21267;-87
2021/01/12 09:10:53;;;;;;;11.12;4.45;;;;;;;0.95;61.57;101734.68;1511895;94;21237;-87
2021/01/12 09:13:28;;;;;;;9.13;3.83;;;;;;;0.75;61.34;101723.08;1511819;94;21291;-87
2021/01/12 09:15:54;;;;;;;16.05;4.70;;;;;;;0.77;61.11;101714.97;1473119;96;21135;-88
2021/01/12 09:18:24;;;;;;;12.95;4.58;;;;;;;1.05;62.03;101722.05;1470055;97;21303;-87
2021/01/12 09:21:03;;;;;;;12.20;4.45;;;;;;;1.05;61.88;101727.35;1484933;96;21392;-88
2021/01/12 09:23:29;;;;;;;12.88;4.78;;;;;;;0.69;61.31;101725.08;1488131;96;21685;-87
2021/01/12 09:26:00;;;;;;;10.63;4.53;;;;;;;1.02;63.27;101711.77;1488804;96;21306;-88
2021/01/12 09:28:31;;;;;;;10.18;3.90;;;;;;;1.09;62.12;101712.26;1488664;95;21263;-87
2021/01/12 09:31:07;;;;;;;16.32;4.55;;;;;;;0.94;60.68;101723.72;1470712;96;21230;-87
2021/01/12 09:33:35;;;;;;;12.75;3.75;;;;;;;1.04;62.37;101708.45;1488769;96;21652;-87
2021/01/12 09:36:08;;;;;;;15.15;4.50;;;;;;;0.84;61.97;101708.80;1505243;94;21228;-87
2021/01/12 09:38:43;;;;;;;12.18;4.37;;;;;;;0.95;62.33;101712.95;1514579;94;21156;-88
2021/01/12 09:41:11;;;;;;;14.23;3.75;;;;;;;0.92;61.93;101700.02;1514276;94;21171;-87
2021/01/12 09:43:37;;;;;;;12.82;4.37;;;;;;;1.00;62.34;101685.88;1492261;94;21228;-87
2021/01/12 09:46:04;;;;;;;12.68;4.28;;;;;;;1.03;62.51;101692.17;1514299;94;21207;-87
2021/01/12 09:48:30;;;;;;;8.80;3.65;;;;;;;1.08;62.37;101697.31;1514196;93;21218;-87
2021/01/12 09:50:57;;;;;;;11.68;4.80;;;;;;;1.12;61.35;101691.19;1514328;93;21103;-87
2021/01/12 09:53:23;;;;;;;18.60;5.28;;;;;;;0.95;61.76;101698.86;1538383;92;21173;-86
2021/01/12 09:55:50;;;;;;;13.95;4.45;;;;;;;1.02;62.25;101694.52;1531109;93;21164;-86
2021/01/12 09:58:16;;;;;;;11.75;4.90;;;;;;;1.12;61.15;101685.88;1518771;94;21253;-87
2021/01/12 10:00:41;;;;;;;12.13;4.15;;;;;;;1.01;61.46;101676.95;1522121;94;21121;-86
2021/01/12 10:03:07;;;;;;;13.35;3.98;;;;;;;0.97;61.53;101671.63;1524262;94;21065;-87
2021/01/12 10:05:41;;;;;;;9.78;3.72;;;;;;;0.80;63.28;101655.76;1524370;94;21011;-87
2021/01/12 10:08:08;;;;;;;9.53;3.80;;;;;;;0.75;62.87;101664.72;1551952;91;21566;-88
2021/01/12 10:10:35;;;;;;;10.48;4.70;;;;;;;0.85;63.94;101656.09;1567989;91;21855;-88
2021/01/12 10:13:03;;;;;;;11.38;4.42;;;;;;;0.99;63.42;101670.97;1567836;91;21730;-88
2021/01/12 10:15:30;;;;;;;10.50;4.58;;;;;;;1.05;62.94;101676.42;1567884;89;21227;-88
2021/01/12 10:17:56;;;;;;;9.93;4.10;;;;;;;1.13;61.76;101668.94;1567730;91;21647;-88
2021/01/12 10:20:22;;;;;;;11.12;4.60;;;;;;;1.05;61.97;101667.13;1567931;91;20976;-88
2021/01/12 10:22:48;;;;;;;8.85;3.83;;;;;;;0.98;62.17;101661.36;1568008;90;21218;-88
2021/01/12 10:25:15;;;;;;;6.67;2.85;;;;;;;0.90;62.46;101637.81;1589677;90;21205;-88
2021/01/12 10:27:41;;;;;;;7.85;3.50;;;;;;;0.64;62.41;101630.58;1591562;90;21494;-88
2021/01/12 10:30:13;;;;;;;8.38;3.20;;;;;;;0.82;62.02;101629.05;1591535;90;21251;-88
2021/01/12 10:32:41;;;;;;;8.85;3.47;;;;;;;0.55;62.85;101618.33;1591675;90;21159;-88
2021/01/12 10:35:09;;;;;;;7.92;3.17;;;;;;;0.62;62.54;101626.78;1591730;90;21785;-88
2021/01/12 10:37:35;;;;;;;9.20;3.45;;;;;;;0.84;62.98;101625.73;1591526;90;21178;-88
2021/01/12 10:40:01;;;;;;;5.83;3.10;;;;;;;0.84;63.01;101625.23;1591711;90;21198;-88
2021/01/12 10:42:27;;;;;;;9.90;3.52;;;;;;;0.96;62.71;101623.54;1587266;90;21179;-88
2021/01/12 10:44:53;;;;;;;8.20;3.67;;;;;;;1.00;62.91;101616.87;1591500;90;21600;-88
2021/01/12 10:47:19;;;;;;;6.67;3.02;;;;;;;1.07;63.65;101620.52;1587352;90;21205;-88
2021/01/12 10:49:45;;;;;;;11.45;4.45;;;;;;;0.98;63.77;101624.20;1591628;90;21304;-88
2021/01/12 10:52:11;;;;;;;8.60;3.52;;;;;;;1.18;62.98;101617.50;1623239;88;21676;-88
2021/01/12 10:54:37;;;;;;;6.67;3.52;;;;;;;0.99;62.24;101610.75;1631531;88;21189;-88
2021/01/12 10:57:07;;;;;;;6.40;3.17;;;;;;;0.96;62.40;101612.92;1631382;87;21602;-87
2021/01/12 10:59:33;;;;;;;6.95;3.33;;;;;;;1.02;63.05;101616.22;1631420;88;21679;-88
2021/01/12 11:02:01;;;;;;;7.45;3.20;;;;;;;1.04;61.10;101612.40;1631319;87;20978;-88
2021/01/12 11:04:28;;;;;;;8.55;3.87;;;;;;;0.35;60.80;101606.75;1631558;88;21157;-88
2021/01/12 11:09:24;;;;;;;9.33;4.22;;;;;;;0.62;61.06;101608.72;1531658;93;21253;-88
2021/01/12 11:11:50;;;;;;;12.65;5.03;;;;;;;0.64;61.38;101608.86;1531654;93;21260;-88
2021/01/12 11:16:46;;;;;;;9.83;4.42;;;;;;;0.52;60.80;101606.23;1474894;97;21264;-87
2021/01/12 11:19:15;;;;;;;11.40;4.05;;;;;;;0.30;61.32;101602.47;1454125;98;21413;-88
2021/01/12 11:21:47;;;;;;;9.93;4.08;;;;;;;0.58;61.43;101610.86;1453969;98;21213;-88
2021/01/12 11:24:20;;;;;;;11.43;4.55;;;;;;;0.36;59.92;101600.47;1400129;102;22175;-88
2021/01/12 11:26:47;;;;;;;10.95;4.22;;;;;;;0.39;61.37;101596.66;1422973;100;21711;-88
2021/01/12 11:29:14;;;;;;;9.65;4.00;;;;;;;0.64;60.63;101592.12;1423258;100;21300;-88
2021/01/12 11:31:41;;;;;;;12.60;3.92;;;;;;;0.72;60.42;101586.80;1423266;100;21178;-88